sensor_id;sensor_type;location;lat;lon;timestamp;P1;durP1;ratioP1;P2;durP2;ratioP2
37485;SDS011;23341;50.296;18.960;2024-02-23T00:01:03;3.53;;;3.17;;
37485;SDS011;23341;50.296;18.960;2024-02-23T00:03:49;5.05;;;3.38;;
37485;SDS011;23341;50.296;18.960;2024-02-23T00:06:17;7.35;;;3.63;;
37485;SDS011;23341;50.296;18.960;2024-02-23T00:08:44;5.35;;;3.47;;
37485;SDS011;23341;50.296;18.960;2024-02-23T00:11:12;3.90;;;2.85;;
37485;SDS011;23341;50.296;18.960;2024-02-23T00:13:41;3.78;;;3.42;;
37485;SDS011;23341;50.296;18.960;2024-02-23T00:16:08;3.57;;;2.80;;
37485;SDS011;23341;50.296;18.960;2024-02-23T00:18:36;5.85;;;3.78;;
37485;SDS011;23341;50.296;18.960;2024-02-23T00:21:05;7.50;;;3.28;;
37485;SDS011;23341;50.296;18.960;2024-02-23T00:23:32;4.45;;;3.40;;
37485;SDS011;23341;50.296;18.960;2024-02-23T00:26:01;3.88;;;3.45;;
37485;SDS011;23341;50.296;18.960;2024-02-23T00:28:28;6.53;;;3.63;;
37485;SDS011;23341;50.296;18.960;2024-02-23T00:30:57;6.15;;;3.65;;
37485;SDS011;23341;50.296;18.960;2024-02-23T00:33:24;3.97;;;3.40;;
37485;SDS011;23341;50.296;18.960;2024-02-23T00:35:52;4.25;;;3.58;;
37485;SDS011;23341;50.296;18.960;2024-02-23T00:38:19;5.45;;;3.55;;
37485;SDS011;23341;50.296;18.960;2024-02-23T00:40:47;3.47;;;3.17;;
37485;SDS011;23341;50.296;18.960;2024-02-23T00:43:14;3.60;;;3.05;;
37485;SDS011;23341;50.296;18.960;2024-02-23T00:45:42;5.85;;;3.67;;
37485;SDS011;23341;50.296;18.960;2024-02-23T00:48:10;4.00;;;3.60;;
37485;SDS011;23341;50.296;18.960;2024-02-23T00:50:39;4.43;;;3.80;;
37485;SDS011;23341;50.296;18.960;2024-02-23T00:53:06;4.60;;;4.03;;
37485;SDS011;23341;50.296;18.960;2024-02-23T00:55:34;6.57;;;4.53;;
37485;SDS011;23341;50.296;18.960;2024-02-23T00:58:01;5.18;;;4.10;;
37485;SDS011;23341;50.296;18.960;2024-02-23T01:00:29;7.40;;;4.15;;
37485;SDS011;23341;50.296;18.960;2024-02-23T01:02:56;5.38;;;3.65;;
37485;SDS011;23341;50.296;18.960;2024-02-23T01:05:27;6.03;;;3.90;;
37485;SDS011;23341;50.296;18.960;2024-02-23T01:07:54;4.47;;;3.45;;
37485;SDS011;23341;50.296;18.960;2024-02-23T01:10:21;4.55;;;3.78;;
37485;SDS011;23341;50.296;18.960;2024-02-23T01:12:49;4.07;;;3.50;;
37485;SDS011;23341;50.296;18.960;2024-02-23T01:15:16;6.63;;;3.63;;
37485;SDS011;23341;50.296;18.960;2024-02-23T01:17:44;6.47;;;3.28;;
37485;SDS011;23341;50.296;18.960;2024-02-23T01:20:12;3.85;;;3.08;;
37485;SDS011;23341;50.296;18.960;2024-02-23T01:22:41;4.13;;;2.75;;
37485;SDS011;23341;50.296;18.960;2024-02-23T01:25:09;4.13;;;3.63;;
37485;SDS011;23341;50.296;18.960;2024-02-23T01:27:36;3.60;;;3.30;;
37485;SDS011;23341;50.296;18.960;2024-02-23T01:30:04;4.80;;;3.42;;
37485;SDS011;23341;50.296;18.960;2024-02-23T01:32:32;4.03;;;3.38;;
37485;SDS011;23341;50.296;18.960;2024-02-23T01:35:01;2.75;;;2.47;;
37485;SDS011;23341;50.296;18.960;2024-02-23T01:37:28;3.78;;;2.80;;
37485;SDS011;23341;50.296;18.960;2024-02-23T01:39:57;4.38;;;2.67;;
37485;SDS011;23341;50.296;18.960;2024-02-23T01:42:25;3.67;;;2.80;;
37485;SDS011;23341;50.296;18.960;2024-02-23T01:44:52;3.35;;;2.63;;
37485;SDS011;23341;50.296;18.960;2024-02-23T01:47:22;3.47;;;3.05;;
37485;SDS011;23341;50.296;18.960;2024-02-23T01:49:50;2.58;;;2.20;;
37485;SDS011;23341;50.296;18.960;2024-02-23T01:52:19;5.03;;;3.80;;
37485;SDS011;23341;50.296;18.960;2024-02-23T01:54:47;3.13;;;2.80;;
37485;SDS011;23341;50.296;18.960;2024-02-23T01:57:16;3.78;;;2.90;;
37485;SDS011;23341;50.296;18.960;2024-02-23T01:59:44;2.67;;;2.47;;
37485;SDS011;23341;50.296;18.960;2024-02-23T02:02:12;3.20;;;2.90;;
37485;SDS011;23341;50.296;18.960;2024-02-23T02:04:39;2.88;;;2.67;;
37485;SDS011;23341;50.296;18.960;2024-02-23T02:07:07;3.20;;;2.90;;
37485;SDS011;23341;50.296;18.960;2024-02-23T02:09:34;3.88;;;2.90;;
37485;SDS011;23341;50.296;18.960;2024-02-23T02:12:02;2.67;;;2.47;;
37485;SDS011;23341;50.296;18.960;2024-02-23T02:14:31;2.55;;;2.35;;
37485;SDS011;23341;50.296;18.960;2024-02-23T02:16:59;4.65;;;2.55;;
37485;SDS011;23341;50.296;18.960;2024-02-23T02:19:27;2.80;;;2.40;;
37485;SDS011;23341;50.296;18.960;2024-02-23T02:21:53;2.35;;;2.15;;
37485;SDS011;23341;50.296;18.960;2024-02-23T02:24:21;2.47;;;2.28;;
37485;SDS011;23341;50.296;18.960;2024-02-23T02:26:48;6.80;;;2.83;;
37485;SDS011;23341;50.296;18.960;2024-02-23T02:29:16;3.95;;;2.42;;
37485;SDS011;23341;50.296;18.960;2024-02-23T02:31:44;3.13;;;2.20;;
37485;SDS011;23341;50.296;18.960;2024-02-23T02:34:12;4.20;;;3.10;;
37485;SDS011;23341;50.296;18.960;2024-02-23T02:36:40;3.22;;;2.70;;
37485;SDS011;23341;50.296;18.960;2024-02-23T02:39:07;2.42;;;2.03;;
37485;SDS011;23341;50.296;18.960;2024-02-23T02:41:35;3.40;;;2.83;;
37485;SDS011;23341;50.296;18.960;2024-02-23T02:44:03;2.65;;;2.42;;
37485;SDS011;23341;50.296;18.960;2024-02-23T02:46:30;2.92;;;2.00;;
37485;SDS011;23341;50.296;18.960;2024-02-23T02:48:59;3.78;;;2.28;;
37485;SDS011;23341;50.296;18.960;2024-02-23T02:51:27;4.20;;;2.50;;
37485;SDS011;23341;50.296;18.960;2024-02-23T02:53:55;3.88;;;2.75;;
37485;SDS011;23341;50.296;18.960;2024-02-23T02:56:22;3.58;;;2.50;;
37485;SDS011;23341;50.296;18.960;2024-02-23T02:58:50;2.58;;;2.35;;
37485;SDS011;23341;50.296;18.960;2024-02-23T03:01:17;2.65;;;2.45;;
37485;SDS011;23341;50.296;18.960;2024-02-23T03:03:45;4.50;;;2.92;;
37485;SDS011;23341;50.296;18.960;2024-02-23T03:06:14;3.67;;;3.17;;
37485;SDS011;23341;50.296;18.960;2024-02-23T03:08:42;3.15;;;2.88;;
37485;SDS011;23341;50.296;18.960;2024-02-23T03:11:09;2.30;;;2.13;;
37485;SDS011;23341;50.296;18.960;2024-02-23T03:13:38;4.32;;;2.70;;
37485;SDS011;23341;50.296;18.960;2024-02-23T03:16:05;2.78;;;2.28;;
37485;SDS011;23341;50.296;18.960;2024-02-23T03:18:33;3.20;;;2.90;;
37485;SDS011;23341;50.296;18.960;2024-02-23T03:21:00;4.65;;;2.50;;
37485;SDS011;23341;50.296;18.960;2024-02-23T03:23:29;5.88;;;3.00;;
37485;SDS011;23341;50.296;18.960;2024-02-23T03:25:56;4.35;;;2.58;;
37485;SDS011;23341;50.296;18.960;2024-02-23T03:28:24;9.27;;;3.33;;
37485;SDS011;23341;50.296;18.960;2024-02-23T03:30:51;3.70;;;3.35;;
37485;SDS011;23341;50.296;18.960;2024-02-23T03:33:19;3.83;;;2.67;;
37485;SDS011;23341;50.296;18.960;2024-02-23T03:35:46;4.68;;;3.10;;
37485;SDS011;23341;50.296;18.960;2024-02-23T03:38:14;5.38;;;3.13;;
37485;SDS011;23341;50.296;18.960;2024-02-23T03:40:42;4.60;;;2.85;;
37485;SDS011;23341;50.296;18.960;2024-02-23T03:43:11;3.28;;;3.00;;
37485;SDS011;23341;50.296;18.960;2024-02-23T03:45:38;4.13;;;3.42;;
37485;SDS011;23341;50.296;18.960;2024-02-23T03:48:06;6.70;;;2.90;;
37485;SDS011;23341;50.296;18.960;2024-02-23T03:50:33;3.53;;;3.22;;
37485;SDS011;23341;50.296;18.960;2024-02-23T03:53:01;3.40;;;3.10;;
37485;SDS011;23341;50.296;18.960;2024-02-23T03:55:29;4.55;;;3.15;;
37485;SDS011;23341;50.296;18.960;2024-02-23T03:57:58;4.10;;;3.58;;
37485;SDS011;23341;50.296;18.960;2024-02-23T04:00:25;3.07;;;2.70;;
37485;SDS011;23341;50.296;18.960;2024-02-23T04:02:53;4.43;;;2.83;;
37485;SDS011;23341;50.296;18.960;2024-02-23T04:05:20;3.97;;;3.10;;
37485;SDS011;23341;50.296;18.960;2024-02-23T04:07:48;3.75;;;3.28;;
37485;SDS011;23341;50.296;18.960;2024-02-23T04:10:15;3.65;;;3.13;;
37485;SDS011;23341;50.296;18.960;2024-02-23T04:12:46;3.72;;;3.28;;
37485;SDS011;23341;50.296;18.960;2024-02-23T04:15:14;4.28;;;3.42;;
37485;SDS011;23341;50.296;18.960;2024-02-23T04:17:43;3.53;;;3.22;;
37485;SDS011;23341;50.296;18.960;2024-02-23T04:20:11;4.22;;;3.35;;
37485;SDS011;23341;50.296;18.960;2024-02-23T04:22:39;3.45;;;3.15;;
37485;SDS011;23341;50.296;18.960;2024-02-23T04:25:07;3.70;;;3.13;;
37485;SDS011;23341;50.296;18.960;2024-02-23T04:27:35;3.47;;;3.17;;
37485;SDS011;23341;50.296;18.960;2024-02-23T04:30:02;4.13;;;3.47;;
37485;SDS011;23341;50.296;18.960;2024-02-23T04:32:32;3.80;;;3.50;;
37485;SDS011;23341;50.296;18.960;2024-02-23T04:34:59;3.95;;;3.38;;
37485;SDS011;23341;50.296;18.960;2024-02-23T04:37:27;5.03;;;3.08;;
37485;SDS011;23341;50.296;18.960;2024-02-23T04:39:54;6.53;;;4.20;;
37485;SDS011;23341;50.296;18.960;2024-02-23T04:42:22;7.68;;;4.88;;
37485;SDS011;23341;50.296;18.960;2024-02-23T04:44:49;11.95;;;4.75;;
37485;SDS011;23341;50.296;18.960;2024-02-23T04:47:18;7.47;;;4.57;;
37485;SDS011;23341;50.296;18.960;2024-02-23T04:49:47;8.15;;;4.53;;
37485;SDS011;23341;50.296;18.960;2024-02-23T04:52:15;7.10;;;4.57;;
37485;SDS011;23341;50.296;18.960;2024-02-23T04:54:42;7.72;;;4.88;;
37485;SDS011;23341;50.296;18.960;2024-02-23T04:57:10;8.80;;;4.78;;
37485;SDS011;23341;50.296;18.960;2024-02-23T04:59:37;6.40;;;4.43;;
37485;SDS011;23341;50.296;18.960;2024-02-23T05:02:05;4.57;;;3.72;;
37485;SDS011;23341;50.296;18.960;2024-02-23T05:04:33;6.82;;;4.13;;
37485;SDS011;23341;50.296;18.960;2024-02-23T05:07:02;7.18;;;4.32;;
37485;SDS011;23341;50.296;18.960;2024-02-23T05:09:29;6.68;;;5.10;;
37485;SDS011;23341;50.296;18.960;2024-02-23T05:11:58;9.05;;;5.40;;
37485;SDS011;23341;50.296;18.960;2024-02-23T05:14:25;7.20;;;5.85;;
37485;SDS011;23341;50.296;18.960;2024-02-23T05:16:53;11.43;;;8.40;;
37485;SDS011;23341;50.296;18.960;2024-02-23T05:19:20;8.63;;;7.70;;
37485;SDS011;23341;50.296;18.960;2024-02-23T05:21:48;11.25;;;8.70;;
37485;SDS011;23341;50.296;18.960;2024-02-23T05:24:17;12.63;;;8.95;;
37485;SDS011;23341;50.296;18.960;2024-02-23T05:26:44;12.70;;;10.03;;
37485;SDS011;23341;50.296;18.960;2024-02-23T05:29:11;13.45;;;10.25;;
37485;SDS011;23341;50.296;18.960;2024-02-23T05:31:44;14.25;;;10.07;;
37485;SDS011;23341;50.296;18.960;2024-02-23T05:34:13;19.77;;;12.10;;
37485;SDS011;23341;50.296;18.960;2024-02-23T05:36:40;22.08;;;11.68;;
37485;SDS011;23341;50.296;18.960;2024-02-23T05:39:08;14.52;;;10.90;;
37485;SDS011;23341;50.296;18.960;2024-02-23T05:41:38;13.20;;;10.18;;
37485;SDS011;23341;50.296;18.960;2024-02-23T05:44:05;12.40;;;10.13;;
37485;SDS011;23341;50.296;18.960;2024-02-23T05:46:33;15.32;;;10.45;;
37485;SDS011;23341;50.296;18.960;2024-02-23T05:49:01;10.15;;;9.07;;
37485;SDS011;23341;50.296;18.960;2024-02-23T05:51:30;12.40;;;9.13;;
37485;SDS011;23341;50.296;18.960;2024-02-23T05:53:58;13.82;;;9.63;;
37485;SDS011;23341;50.296;18.960;2024-02-23T05:56:26;16.00;;;10.13;;
37485;SDS011;23341;50.296;18.960;2024-02-23T05:58:54;11.77;;;9.45;;
37485;SDS011;23341;50.296;18.960;2024-02-23T06:01:22;12.63;;;9.40;;
37485;SDS011;23341;50.296;18.960;2024-02-23T06:03:49;11.18;;;10.02;;
37485;SDS011;23341;50.296;18.960;2024-02-23T06:06:19;23.00;;;13.70;;
37485;SDS011;23341;50.296;18.960;2024-02-23T06:08:46;25.45;;;12.20;;
37485;SDS011;23341;50.296;18.960;2024-02-23T06:11:15;24.77;;;14.83;;
37485;SDS011;23341;50.296;18.960;2024-02-23T06:13:42;21.48;;;14.88;;
37485;SDS011;23341;50.296;18.960;2024-02-23T06:16:11;22.55;;;13.85;;
37485;SDS011;23341;50.296;18.960;2024-02-23T06:18:39;22.95;;;13.13;;
37485;SDS011;23341;50.296;18.960;2024-02-23T06:21:11;20.80;;;11.93;;
37485;SDS011;23341;50.296;18.960;2024-02-23T06:23:40;15.50;;;9.40;;
37485;SDS011;23341;50.296;18.960;2024-02-23T06:26:08;12.68;;;9.50;;
37485;SDS011;23341;50.296;18.960;2024-02-23T06:28:35;15.48;;;9.68;;
37485;SDS011;23341;50.296;18.960;2024-02-23T06:31:04;11.77;;;9.07;;
37485;SDS011;23341;50.296;18.960;2024-02-23T06:33:33;16.35;;;11.70;;
37485;SDS011;23341;50.296;18.960;2024-02-23T06:36:02;25.55;;;13.43;;
37485;SDS011;23341;50.296;18.960;2024-02-23T06:38:29;18.45;;;15.27;;
37485;SDS011;23341;50.296;18.960;2024-02-23T06:40:57;21.42;;;15.05;;
37485;SDS011;23341;50.296;18.960;2024-02-23T06:43:24;18.77;;;14.20;;
37485;SDS011;23341;50.296;18.960;2024-02-23T06:45:52;15.10;;;12.65;;
37485;SDS011;23341;50.296;18.960;2024-02-23T06:48:20;18.45;;;12.98;;
37485;SDS011;23341;50.296;18.960;2024-02-23T06:50:49;18.35;;;13.48;;
37485;SDS011;23341;50.296;18.960;2024-02-23T06:53:16;17.48;;;13.77;;
37485;SDS011;23341;50.296;18.960;2024-02-23T06:55:44;19.58;;;14.57;;
37485;SDS011;23341;50.296;18.960;2024-02-23T06:58:11;22.17;;;17.30;;
37485;SDS011;23341;50.296;18.960;2024-02-23T07:00:40;20.58;;;15.07;;
37485;SDS011;23341;50.296;18.960;2024-02-23T07:03:07;24.02;;;16.60;;
37485;SDS011;23341;50.296;18.960;2024-02-23T07:05:35;45.30;;;25.08;;
37485;SDS011;23341;50.296;18.960;2024-02-23T07:08:04;76.95;;;33.92;;
37485;SDS011;23341;50.296;18.960;2024-02-23T07:10:33;28.38;;;18.15;;
37485;SDS011;23341;50.296;18.960;2024-02-23T07:13:00;30.10;;;18.00;;
37485;SDS011;23341;50.296;18.960;2024-02-23T07:15:28;37.28;;;20.65;;
37485;SDS011;23341;50.296;18.960;2024-02-23T07:17:58;36.33;;;20.70;;
37485;SDS011;23341;50.296;18.960;2024-02-23T07:20:25;38.75;;;23.17;;
37485;SDS011;23341;50.296;18.960;2024-02-23T07:22:53;39.53;;;26.52;;
37485;SDS011;23341;50.296;18.960;2024-02-23T07:25:22;47.22;;;26.50;;
37485;SDS011;23341;50.296;18.960;2024-02-23T07:27:49;35.22;;;22.75;;
37485;SDS011;23341;50.296;18.960;2024-02-23T07:30:17;30.27;;;21.13;;
37485;SDS011;23341;50.296;18.960;2024-02-23T07:32:45;27.00;;;20.75;;
37485;SDS011;23341;50.296;18.960;2024-02-23T07:35:13;27.30;;;20.02;;
37485;SDS011;23341;50.296;18.960;2024-02-23T07:37:40;35.75;;;22.65;;
37485;SDS011;23341;50.296;18.960;2024-02-23T07:40:08;37.33;;;25.88;;
37485;SDS011;23341;50.296;18.960;2024-02-23T07:42:37;38.13;;;25.15;;
37485;SDS011;23341;50.296;18.960;2024-02-23T07:45:05;45.53;;;26.27;;
37485;SDS011;23341;50.296;18.960;2024-02-23T07:47:34;34.53;;;24.08;;
37485;SDS011;23341;50.296;18.960;2024-02-23T07:50:02;42.28;;;26.25;;
37485;SDS011;23341;50.296;18.960;2024-02-23T07:52:29;40.13;;;26.20;;
37485;SDS011;23341;50.296;18.960;2024-02-23T07:54:57;42.97;;;27.60;;
37485;SDS011;23341;50.296;18.960;2024-02-23T07:57:25;40.25;;;22.88;;
37485;SDS011;23341;50.296;18.960;2024-02-23T07:59:54;37.35;;;23.90;;
37485;SDS011;23341;50.296;18.960;2024-02-23T08:02:21;40.58;;;22.75;;
37485;SDS011;23341;50.296;18.960;2024-02-23T08:04:49;39.47;;;21.92;;
37485;SDS011;23341;50.296;18.960;2024-02-23T08:07:17;39.13;;;22.55;;
37485;SDS011;23341;50.296;18.960;2024-02-23T08:09:45;34.72;;;21.00;;
37485;SDS011;23341;50.296;18.960;2024-02-23T08:12:13;30.55;;;20.38;;
37485;SDS011;23341;50.296;18.960;2024-02-23T08:14:41;36.70;;;21.15;;
37485;SDS011;23341;50.296;18.960;2024-02-23T08:17:12;36.90;;;23.13;;
37485;SDS011;23341;50.296;18.960;2024-02-23T08:19:40;28.60;;;21.75;;
37485;SDS011;23341;50.296;18.960;2024-02-23T08:22:07;33.95;;;21.30;;
37485;SDS011;23341;50.296;18.960;2024-02-23T08:24:35;31.52;;;23.15;;
37485;SDS011;23341;50.296;18.960;2024-02-23T08:27:02;31.10;;;22.48;;
37485;SDS011;23341;50.296;18.960;2024-02-23T08:29:31;33.13;;;23.00;;
37485;SDS011;23341;50.296;18.960;2024-02-23T08:31:58;33.28;;;23.00;;
37485;SDS011;23341;50.296;18.960;2024-02-23T08:34:27;29.08;;;19.13;;
37485;SDS011;23341;50.296;18.960;2024-02-23T08:36:55;30.73;;;21.70;;
37485;SDS011;23341;50.296;18.960;2024-02-23T08:39:22;32.13;;;22.77;;
37485;SDS011;23341;50.296;18.960;2024-02-23T08:41:49;36.67;;;20.70;;
37485;SDS011;23341;50.296;18.960;2024-02-23T08:44:18;30.42;;;18.55;;
37485;SDS011;23341;50.296;18.960;2024-02-23T08:46:45;29.98;;;19.33;;
37485;SDS011;23341;50.296;18.960;2024-02-23T08:49:14;25.20;;;18.52;;
37485;SDS011;23341;50.296;18.960;2024-02-23T08:51:42;27.73;;;19.08;;
37485;SDS011;23341;50.296;18.960;2024-02-23T08:54:10;30.33;;;20.20;;
37485;SDS011;23341;50.296;18.960;2024-02-23T08:56:37;23.48;;;17.83;;
37485;SDS011;23341;50.296;18.960;2024-02-23T08:59:08;23.77;;;18.55;;
37485;SDS011;23341;50.296;18.960;2024-02-23T09:01:35;28.58;;;17.08;;
37485;SDS011;23341;50.296;18.960;2024-02-23T09:04:03;23.38;;;17.48;;
37485;SDS011;23341;50.296;18.960;2024-02-23T09:06:30;22.48;;;15.75;;
37485;SDS011;23341;50.296;18.960;2024-02-23T09:09:00;24.05;;;17.35;;
37485;SDS011;23341;50.296;18.960;2024-02-23T09:11:27;25.30;;;15.40;;
37485;SDS011;23341;50.296;18.960;2024-02-23T09:13:55;21.70;;;14.70;;
37485;SDS011;23341;50.296;18.960;2024-02-23T09:16:22;15.95;;;13.00;;
37485;SDS011;23341;50.296;18.960;2024-02-23T09:18:50;21.70;;;12.48;;
37485;SDS011;23341;50.296;18.960;2024-02-23T09:21:18;21.75;;;13.98;;
37485;SDS011;23341;50.296;18.960;2024-02-23T09:23:47;14.63;;;9.95;;
37485;SDS011;23341;50.296;18.960;2024-02-23T09:26:16;17.67;;;10.82;;
37485;SDS011;23341;50.296;18.960;2024-02-23T09:28:46;19.63;;;12.57;;
37485;SDS011;23341;50.296;18.960;2024-02-23T09:31:14;24.85;;;14.52;;
37485;SDS011;23341;50.296;18.960;2024-02-23T09:33:42;14.60;;;11.52;;
37485;SDS011;23341;50.296;18.960;2024-02-23T09:36:11;17.58;;;11.70;;
37485;SDS011;23341;50.296;18.960;2024-02-23T09:38:39;16.40;;;12.35;;
37485;SDS011;23341;50.296;18.960;2024-02-23T09:41:07;15.45;;;10.80;;
37485;SDS011;23341;50.296;18.960;2024-02-23T09:43:44;13.27;;;9.40;;
37485;SDS011;23341;50.296;18.960;2024-02-23T09:46:13;11.93;;;9.30;;
37485;SDS011;23341;50.296;18.960;2024-02-23T09:48:41;10.20;;;8.65;;
37485;SDS011;23341;50.296;18.960;2024-02-23T09:51:10;10.57;;;9.15;;
37485;SDS011;23341;50.296;18.960;2024-02-23T09:53:38;10.63;;;9.60;;
37485;SDS011;23341;50.296;18.960;2024-02-23T09:56:06;15.85;;;11.15;;
37485;SDS011;23341;50.296;18.960;2024-02-23T09:58:36;13.70;;;12.10;;
37485;SDS011;23341;50.296;18.960;2024-02-23T10:01:05;17.35;;;13.80;;
37485;SDS011;23341;50.296;18.960;2024-02-23T10:03:37;21.02;;;16.35;;
37485;SDS011;23341;50.296;18.960;2024-02-23T10:06:06;20.75;;;16.27;;
37485;SDS011;23341;50.296;18.960;2024-02-23T10:08:33;21.40;;;13.75;;
37485;SDS011;23341;50.296;18.960;2024-02-23T10:11:01;18.70;;;13.23;;
37485;SDS011;23341;50.296;18.960;2024-02-23T10:13:30;16.23;;;12.53;;
37485;SDS011;23341;50.296;18.960;2024-02-23T10:15:58;12.02;;;10.10;;
37485;SDS011;23341;50.296;18.960;2024-02-23T10:18:28;12.88;;;9.10;;
37485;SDS011;23341;50.296;18.960;2024-02-23T10:20:55;15.00;;;12.53;;
37485;SDS011;23341;50.296;18.960;2024-02-23T10:23:23;15.65;;;14.00;;
37485;SDS011;23341;50.296;18.960;2024-02-23T10:25:51;17.48;;;12.63;;
37485;SDS011;23341;50.296;18.960;2024-02-23T10:28:18;15.27;;;13.38;;
37485;SDS011;23341;50.296;18.960;2024-02-23T10:30:48;20.60;;;13.73;;
37485;SDS011;23341;50.296;18.960;2024-02-23T10:33:16;18.15;;;12.90;;
37485;SDS011;23341;50.296;18.960;2024-02-23T10:35:52;17.70;;;13.82;;
37485;SDS011;23341;50.296;18.960;2024-02-23T10:38:23;14.63;;;10.10;;
37485;SDS011;23341;50.296;18.960;2024-02-23T10:40:51;11.82;;;9.32;;
37485;SDS011;23341;50.296;18.960;2024-02-23T10:43:24;12.13;;;8.32;;
37485;SDS011;23341;50.296;18.960;2024-02-23T10:45:57;11.07;;;8.60;;
37485;SDS011;23341;50.296;18.960;2024-02-23T10:48:28;9.43;;;8.00;;
37485;SDS011;23341;50.296;18.960;2024-02-23T10:50:58;9.02;;;6.90;;
37485;SDS011;23341;50.296;18.960;2024-02-23T10:53:25;10.85;;;7.95;;
37485;SDS011;23341;50.296;18.960;2024-02-23T10:55:56;9.32;;;7.07;;
37485;SDS011;23341;50.296;18.960;2024-02-23T10:58:25;9.07;;;7.20;;
37485;SDS011;23341;50.296;18.960;2024-02-23T11:00:52;8.02;;;6.60;;
37485;SDS011;23341;50.296;18.960;2024-02-23T11:03:26;7.05;;;5.93;;
37485;SDS011;23341;50.296;18.960;2024-02-23T11:05:55;7.90;;;6.43;;
37485;SDS011;23341;50.296;18.960;2024-02-23T11:08:24;12.60;;;7.30;;
37485;SDS011;23341;50.296;18.960;2024-02-23T11:10:54;7.38;;;6.60;;
37485;SDS011;23341;50.296;18.960;2024-02-23T11:13:29;8.35;;;6.35;;
37485;SDS011;23341;50.296;18.960;2024-02-23T11:16:01;8.45;;;6.97;;
37485;SDS011;23341;50.296;18.960;2024-02-23T11:18:29;8.23;;;7.15;;
37485;SDS011;23341;50.296;18.960;2024-02-23T11:20:58;8.27;;;5.97;;
37485;SDS011;23341;50.296;18.960;2024-02-23T11:23:28;10.13;;;6.28;;
37485;SDS011;23341;50.296;18.960;2024-02-23T11:26:06;9.18;;;6.85;;
37485;SDS011;23341;50.296;18.960;2024-02-23T11:28:43;14.20;;;7.30;;
37485;SDS011;23341;50.296;18.960;2024-02-23T11:31:14;8.23;;;6.00;;
37485;SDS011;23341;50.296;18.960;2024-02-23T11:33:48;11.18;;;6.05;;
37485;SDS011;23341;50.296;18.960;2024-02-23T11:36:21;8.18;;;6.70;;
37485;SDS011;23341;50.296;18.960;2024-02-23T11:38:56;9.40;;;6.53;;
37485;SDS011;23341;50.296;18.960;2024-02-23T11:41:24;10.27;;;7.40;;
37485;SDS011;23341;50.296;18.960;2024-02-23T11:43:53;11.00;;;7.00;;
37485;SDS011;23341;50.296;18.960;2024-02-23T11:46:22;9.87;;;7.33;;
37485;SDS011;23341;50.296;18.960;2024-02-23T11:48:50;13.40;;;9.70;;
37485;SDS011;23341;50.296;18.960;2024-02-23T11:51:19;11.30;;;8.63;;
37485;SDS011;23341;50.296;18.960;2024-02-23T11:53:47;15.13;;;10.63;;
37485;SDS011;23341;50.296;18.960;2024-02-23T11:56:16;21.80;;;14.77;;
37485;SDS011;23341;50.296;18.960;2024-02-23T11:58:46;14.85;;;10.55;;
37485;SDS011;23341;50.296;18.960;2024-02-23T12:01:14;20.23;;;11.57;;
37485;SDS011;23341;50.296;18.960;2024-02-23T12:03:41;18.65;;;12.30;;
37485;SDS011;23341;50.296;18.960;2024-02-23T12:06:10;26.25;;;18.85;;
37485;SDS011;23341;50.296;18.960;2024-02-23T12:08:38;21.15;;;13.40;;
37485;SDS011;23341;50.296;18.960;2024-02-23T12:11:07;30.67;;;20.20;;
37485;SDS011;23341;50.296;18.960;2024-02-23T12:13:37;27.13;;;19.33;;
37485;SDS011;23341;50.296;18.960;2024-02-23T12:16:06;52.97;;;31.15;;
37485;SDS011;23341;50.296;18.960;2024-02-23T12:18:35;18.63;;;14.25;;
37485;SDS011;23341;50.296;18.960;2024-02-23T12:21:04;17.25;;;12.23;;
37485;SDS011;23341;50.296;18.960;2024-02-23T12:23:39;16.92;;;12.00;;
37485;SDS011;23341;50.296;18.960;2024-02-23T12:26:07;17.95;;;13.13;;
37485;SDS011;23341;50.296;18.960;2024-02-23T12:28:37;19.52;;;14.57;;
37485;SDS011;23341;50.296;18.960;2024-02-23T12:31:05;25.40;;;19.05;;
37485;SDS011;23341;50.296;18.960;2024-02-23T12:33:33;18.40;;;13.52;;
37485;SDS011;23341;50.296;18.960;2024-02-23T12:36:02;19.40;;;13.15;;
37485;SDS011;23341;50.296;18.960;2024-02-23T12:38:31;12.93;;;10.00;;
37485;SDS011;23341;50.296;18.960;2024-02-23T12:40:59;18.45;;;13.05;;
37485;SDS011;23341;50.296;18.960;2024-02-23T12:43:28;14.20;;;12.57;;
37485;SDS011;23341;50.296;18.960;2024-02-23T12:45:57;17.75;;;14.77;;
37485;SDS011;23341;50.296;18.960;2024-02-23T12:48:27;14.45;;;10.98;;
37485;SDS011;23341;50.296;18.960;2024-02-23T12:50:54;15.27;;;11.93;;
37485;SDS011;23341;50.296;18.960;2024-02-23T12:53:32;16.73;;;14.57;;
37485;SDS011;23341;50.296;18.960;2024-02-23T12:56:02;16.83;;;10.27;;
37485;SDS011;23341;50.296;18.960;2024-02-23T12:58:30;14.47;;;11.13;;
37485;SDS011;23341;50.296;18.960;2024-02-23T13:00:59;13.70;;;12.00;;
37485;SDS011;23341;50.296;18.960;2024-02-23T13:03:27;15.85;;;12.73;;
37485;SDS011;23341;50.296;18.960;2024-02-23T13:05:55;18.20;;;13.82;;
37485;SDS011;23341;50.296;18.960;2024-02-23T13:08:24;15.32;;;12.48;;
37485;SDS011;23341;50.296;18.960;2024-02-23T13:10:52;21.80;;;13.65;;
37485;SDS011;23341;50.296;18.960;2024-02-23T13:13:21;16.15;;;14.25;;
37485;SDS011;23341;50.296;18.960;2024-02-23T13:15:50;19.50;;;13.98;;
37485;SDS011;23341;50.296;18.960;2024-02-23T13:18:20;19.30;;;13.70;;
37485;SDS011;23341;50.296;18.960;2024-02-23T13:20:47;18.75;;;14.48;;
37485;SDS011;23341;50.296;18.960;2024-02-23T13:23:15;22.70;;;18.90;;
37485;SDS011;23341;50.296;18.960;2024-02-23T13:25:43;22.17;;;17.27;;
37485;SDS011;23341;50.296;18.960;2024-02-23T13:28:11;18.92;;;15.70;;
37485;SDS011;23341;50.296;18.960;2024-02-23T13:30:39;21.92;;;18.10;;
37485;SDS011;23341;50.296;18.960;2024-02-23T13:33:07;17.45;;;14.52;;
37485;SDS011;23341;50.296;18.960;2024-02-23T13:38:05;17.90;;;14.50;;
37485;SDS011;23341;50.296;18.960;2024-02-23T13:40:33;14.55;;;12.15;;
37485;SDS011;23341;50.296;18.960;2024-02-23T13:43:00;22.05;;;15.10;;
37485;SDS011;23341;50.296;18.960;2024-02-23T13:45:27;24.35;;;15.75;;
37485;SDS011;23341;50.296;18.960;2024-02-23T13:47:56;23.52;;;17.17;;
37485;SDS011;23341;50.296;18.960;2024-02-23T13:50:24;24.52;;;16.85;;
37485;SDS011;23341;50.296;18.960;2024-02-23T13:52:53;29.67;;;19.80;;
37485;SDS011;23341;50.296;18.960;2024-02-23T13:55:20;60.65;;;39.28;;
37485;SDS011;23341;50.296;18.960;2024-02-23T13:57:48;33.47;;;24.00;;
37485;SDS011;23341;50.296;18.960;2024-02-23T14:00:17;27.45;;;21.13;;
37485;SDS011;23341;50.296;18.960;2024-02-23T14:02:45;25.73;;;17.65;;
37485;SDS011;23341;50.296;18.960;2024-02-23T14:05:13;21.90;;;15.05;;
37485;SDS011;23341;50.296;18.960;2024-02-23T14:07:44;22.65;;;17.17;;
37485;SDS011;23341;50.296;18.960;2024-02-23T14:10:12;27.90;;;20.13;;
37485;SDS011;23341;50.296;18.960;2024-02-23T14:12:40;29.08;;;21.48;;
37485;SDS011;23341;50.296;18.960;2024-02-23T14:15:08;16.98;;;13.57;;
37485;SDS011;23341;50.296;18.960;2024-02-23T14:17:36;26.50;;;19.60;;
37485;SDS011;23341;50.296;18.960;2024-02-23T14:20:04;19.52;;;15.95;;
37485;SDS011;23341;50.296;18.960;2024-02-23T14:22:33;30.58;;;20.73;;
37485;SDS011;23341;50.296;18.960;2024-02-23T14:25:00;37.65;;;27.73;;
37485;SDS011;23341;50.296;18.960;2024-02-23T14:27:29;22.27;;;17.08;;
37485;SDS011;23341;50.296;18.960;2024-02-23T14:29:57;24.23;;;19.23;;